Ipameri, Brazil
Current Conditions -  °F | °C
As of 1:00 PM on Sunday 23 Nov 2014 (Local Time) from SBUL Reporting Station
Moderate Rain Moderate Rain  
Wind Chill: 73°   Ceiling: 2000
Heat Index: 73°   Visibility: 6mi
Dew Point: 64°   Wind: 9mph
Humidity: 73%   Direction: 320°NW
Pressure: 30.03"   Gusts: NA
Location:  17.72°S, 48.16°W
Report Text: SBUL 231500Z 32008KT 9999 2000SW RA BKN020 FEW050TCU 23/18 Q1017
Loading
Personal Weather Stations






























Interactive Weather Map New forecast layout! Learn more

10-Day Weather Forecast

Advertisements
Track Severe Weather on mobile